Weather at Brisbane

Public forecast

Using degrees Celsius for public forecast. Weather courtesy of forecast.io.

Closest aviation weather report (METAR) to Brisbane

Closest report is Lester B. Pearson International Airport, 20.0 nm (37.1 km) E. Retrieved 2020/11/24 00:04 UTC (21 minutes ago):

CYYZ 240004Z 30012KT 15SM FEW025 02/M02 A3018 RMK SC1 SC TR SLP230

Closest aviation forecast (TAF) to Brisbane

Closest forecast is Lester B. Pearson International Airport, 20.0 nm (37.1 km) E. Retrieved 2020-11-24 00:42 UTC (0 seconds ago):

TAF CYYZ 232338Z 2400/2506 29012KT P6SM BKN030 FM240900 31006KT P6SM BKN020 BECMG 2412/2414 05008KT BECMG 2416/2418 08008KT FM250300 12010KT 2SM -SNRA SCT008 OVC012 PROB30 2504/2506 1SM -SNPL OVC006 RMK NXT FCST BY 240300Z